Aviation Digital Data Service (ADDS)

Output produced by METARs form (0236 UTC 18 June 2019)
found at http://www.aviationweather.gov/metar/data/
 
METAR text: FKKD 180200Z 13002KT 7000 FEW006 BKN013 FEW016CB 25/25 Q1014 NOSIG
Conditions at: FKKD (DOUALA (CIV/MIL), CM) observed 0200 UTC 18 June 2019
Temperature: 25.0°C (77°F)
Dewpoint: 25.0°C (77°F) [RH = 100%]
Pressure (altimeter): 29.94 inches Hg (1014.0 mb)
Winds: from the SE (130 degrees) at 2 MPH (2 knots; 1.0 m/s)
Visibility: 4 miles ( 7 km)
Ceiling: 1300 feet AGL
Clouds: few clouds at 600 feet AGL
broken clouds at 1300 feet AGL
few clouds at 1600 feet AGL
Weather: no significant weather observed at this time

METAR text: FKKD 180100Z VRB03KT 8000 BKN013 FEW016CB 25/25 Q1014 NOSIG
Conditions at: FKKD (DOUALA (CIV/MIL), CM) observed 0100 UTC 18 June 2019
Temperature: 25.0°C (77°F)
Dewpoint: 25.0°C (77°F) [RH = 100%]
Pressure (altimeter): 29.94 inches Hg (1014.0 mb)
Winds: variable direction winds at 3 MPH (3 knots; 1.5 m/s)
Visibility: 5 miles ( 8 km)
Ceiling: 1300 feet AGL
Clouds: broken clouds at 1300 feet AGL
few clouds at 1600 feet AGL
Weather: no significant weather observed at this time

METAR text: FKKD 180000Z 13001KT 9999 BKN013 FEW016CB 25/24 Q1014 NOSIG
Conditions at: FKKD (DOUALA (CIV/MIL), CM) observed 0000 UTC 18 June 2019
Temperature: 25.0°C (77°F)
Dewpoint: 24.0°C (75°F) [RH = 94%]
Pressure (altimeter): 29.94 inches Hg (1014.0 mb)
Winds: from the SE (130 degrees) at 1 MPH (1 knots; 0.5 m/s)
Visibility: 6 or more miles (10+ km)
Ceiling: 1300 feet AGL
Clouds: broken clouds at 1300 feet AGL
few clouds at 1600 feet AGL
Weather: no significant weather observed at this time

METAR text: FKKD 172300Z 11002KT 9999 BKN013 FEW016CB 26/25 Q1015 TEMPO TS
Conditions at: FKKD (DOUALA (CIV/MIL), CM) observed 2300 UTC 17 June 2019
Temperature: 26.0°C (79°F)
Dewpoint: 25.0°C (77°F) [RH = 94%]
Pressure (altimeter): 29.97 inches Hg (1015.0 mb)
Winds: from the ESE (110 degrees) at 2 MPH (2 knots; 1.0 m/s)
Visibility: 6 or more miles (10+ km)
Ceiling: 1300 feet AGL
Clouds: broken clouds at 1300 feet AGL
few clouds at 1600 feet AGL
Weather: no significant weather observed at this time

METAR text: FKKD 172200Z 11002KT 9999 BKN013 FEW016CB 26/25 Q1015 NOSIG
Conditions at: FKKD (DOUALA (CIV/MIL), CM) observed 2200 UTC 17 June 2019
Temperature: 26.0°C (79°F)
Dewpoint: 25.0°C (77°F) [RH = 94%]
Pressure (altimeter): 29.97 inches Hg (1015.0 mb)
Winds: from the ESE (110 degrees) at 2 MPH (2 knots; 1.0 m/s)
Visibility: 6 or more miles (10+ km)
Ceiling: 1300 feet AGL
Clouds: broken clouds at 1300 feet AGL
few clouds at 1600 feet AGL
Weather: no significant weather observed at this time

METAR text: FKKD 172100Z 00000KT 9999 SCT013 FEW016CB 26/25 Q1015 NOSIG
Conditions at: FKKD (DOUALA (CIV/MIL), CM) observed 2100 UTC 17 June 2019
Temperature: 26.0°C (79°F)
Dewpoint: 25.0°C (77°F) [RH = 94%]
Pressure (altimeter): 29.97 inches Hg (1015.0 mb)
Winds: calm
Visibility: 6 or more miles (10+ km)
Ceiling: at least 12,000 feet AGL
Clouds: scattered clouds at 1300 feet AGL
few clouds at 1600 feet AGL
Weather: no significant weather observed at this time

METAR text: FKKD 172000Z 00000KT 9999 BKN013 FEW016CB 27/25 Q1015 NOSIG
Conditions at: FKKD (DOUALA (CIV/MIL), CM) observed 2000 UTC 17 June 2019
Temperature: 27.0°C (81°F)
Dewpoint: 25.0°C (77°F) [RH = 89%]
Pressure (altimeter): 29.97 inches Hg (1015.0 mb)
Winds: calm
Visibility: 6 or more miles (10+ km)
Ceiling: 1300 feet AGL
Clouds: broken clouds at 1300 feet AGL
few clouds at 1600 feet AGL
Weather: no significant weather observed at this time

METAR text: FKKD 171900Z VRB01KT 9999 SCT016 FEW020CB 27/25 Q1014 NOSIG
Conditions at: FKKD (DOUALA (CIV/MIL), CM) observed 1900 UTC 17 June 2019
Temperature: 27.0°C (81°F)
Dewpoint: 25.0°C (77°F) [RH = 89%]
Pressure (altimeter): 29.94 inches Hg (1014.0 mb)
Winds: variable direction winds at 1 MPH (1 knots; 0.5 m/s)
Visibility: 6 or more miles (10+ km)
Ceiling: at least 12,000 feet AGL
Clouds: scattered clouds at 1600 feet AGL
few clouds at 2000 feet AGL
Weather: no significant weather observed at this time

METAR text: FKKD 171800Z VRB02KT 9999 SCT016 FEW020CB 27/25 Q1013 NOSIG
Conditions at: FKKD (DOUALA (CIV/MIL), CM) observed 1800 UTC 17 June 2019
Temperature: 27.0°C (81°F)
Dewpoint: 25.0°C (77°F) [RH = 89%]
Pressure (altimeter): 29.91 inches Hg (1013.0 mb)
Winds: variable direction winds at 2 MPH (2 knots; 1.0 m/s)
Visibility: 6 or more miles (10+ km)
Ceiling: at least 12,000 feet AGL
Clouds: scattered clouds at 1600 feet AGL
few clouds at 2000 feet AGL
Weather: no significant weather observed at this time

METAR text: FKKD 171700Z VRB03KT 9999 SCT016 FEW020CB 29/25 Q1012 NOSIG
Conditions at: FKKD (DOUALA (CIV/MIL), CM) observed 1700 UTC 17 June 2019
Temperature: 29.0°C (84°F)
Dewpoint: 25.0°C (77°F) [RH = 79%]
Pressure (altimeter): 29.88 inches Hg (1012.0 mb)
Winds: variable direction winds at 3 MPH (3 knots; 1.5 m/s)
Visibility: 6 or more miles (10+ km)
Ceiling: at least 12,000 feet AGL
Clouds: scattered clouds at 1600 feet AGL
few clouds at 2000 feet AGL
Weather: no significant weather observed at this time

METAR text: FKKD 171600Z VRB04KT 9999 BKN016 FEW020CB 30/25 Q1011 NOSIG
Conditions at: FKKD (DOUALA (CIV/MIL), CM) observed 1600 UTC 17 June 2019
Temperature: 30.0°C (86°F)
Dewpoint: 25.0°C (77°F) [RH = 75%]
Pressure (altimeter): 29.85 inches Hg (1011.0 mb)
Winds: variable direction winds at 5 MPH (4 knots; 2.1 m/s)
Visibility: 6 or more miles (10+ km)
Ceiling: 1600 feet AGL
Clouds: broken clouds at 1600 feet AGL
few clouds at 2000 feet AGL
Weather: no significant weather observed at this time

METAR text: FKKD 171500Z VRB02KT 9999 BKN016 FEW020CB 30/26 Q1012 NOSIG
Conditions at: FKKD (DOUALA (CIV/MIL), CM) observed 1500 UTC 17 June 2019
Temperature: 30.0°C (86°F)
Dewpoint: 26.0°C (79°F) [RH = 79%]
Pressure (altimeter): 29.88 inches Hg (1012.0 mb)
Winds: variable direction winds at 2 MPH (2 knots; 1.0 m/s)
Visibility: 6 or more miles (10+ km)
Ceiling: 1600 feet AGL
Clouds: broken clouds at 1600 feet AGL
few clouds at 2000 feet AGL
Weather: no significant weather observed at this time

METAR text: FKKD 171400Z VRB02KT 9999 BKN016 FEW020CB 30/26 Q1013 NOSIG
Conditions at: FKKD (DOUALA (CIV/MIL), CM) observed 1400 UTC 17 June 2019
Temperature: 30.0°C (86°F)
Dewpoint: 26.0°C (79°F) [RH = 79%]
Pressure (altimeter): 29.91 inches Hg (1013.0 mb)
Winds: variable direction winds at 2 MPH (2 knots; 1.0 m/s)
Visibility: 6 or more miles (10+ km)
Ceiling: 1600 feet AGL
Clouds: broken clouds at 1600 feet AGL
few clouds at 2000 feet AGL
Weather: no significant weather observed at this time

METAR text: FKKD 171300Z VRB03KT 8000 VCSH FEW008 BKN016 FEW020CB 29/25 Q1013 NOSIG
Conditions at: FKKD (DOUALA (CIV/MIL), CM) observed 1300 UTC 17 June 2019
Temperature: 29.0°C (84°F)
Dewpoint: 25.0°C (77°F) [RH = 79%]
Pressure (altimeter): 29.91 inches Hg (1013.0 mb)
Winds: variable direction winds at 3 MPH (3 knots; 1.5 m/s)
Visibility: 5 miles ( 8 km)
Ceiling: 1600 feet AGL
Clouds: few clouds at 800 feet AGL
broken clouds at 1600 feet AGL
few clouds at 2000 feet AGL
Weather: VCSH  (showers in vicinity)

METAR text: FKKD 171200Z VRB03KT 3000 -RA FEW008 BKN013 FEW016CB 29/24 Q1014 TEMPO 2000 RADZ
Conditions at: FKKD (DOUALA (CIV/MIL), CM) observed 1200 UTC 17 June 2019
Temperature: 29.0°C (84°F)
Dewpoint: 24.0°C (75°F) [RH = 74%]
Pressure (altimeter): 29.94 inches Hg (1014.0 mb)
Winds: variable direction winds at 3 MPH (3 knots; 1.5 m/s)
Visibility: 1.86 miles (2.99 km)
Ceiling: 1300 feet AGL
Clouds: few clouds at 800 feet AGL
broken clouds at 1300 feet AGL
few clouds at 1600 feet AGL
Weather: -RA  (light rain)

METAR text: FKKD 171100Z VRB02KT 9999 FEW008 BKN016 FEW020CB 29/25 Q1014 NOSIG
Conditions at: FKKD (DOUALA (CIV/MIL), CM) observed 1100 UTC 17 June 2019
Temperature: 29.0°C (84°F)
Dewpoint: 25.0°C (77°F) [RH = 79%]
Pressure (altimeter): 29.94 inches Hg (1014.0 mb)
Winds: variable direction winds at 2 MPH (2 knots; 1.0 m/s)
Visibility: 6 or more miles (10+ km)
Ceiling: 1600 feet AGL
Clouds: few clouds at 800 feet AGL
broken clouds at 1600 feet AGL
few clouds at 2000 feet AGL
Weather: no significant weather observed at this time

METAR text: FKKD 171000Z VRB02KT 9999 FEW008 BKN016 FEW020CB 28/24 Q1015 NOSIG
Conditions at: FKKD (DOUALA (CIV/MIL), CM) observed 1000 UTC 17 June 2019
Temperature: 28.0°C (82°F)
Dewpoint: 24.0°C (75°F) [RH = 79%]
Pressure (altimeter): 29.97 inches Hg (1015.0 mb)
Winds: variable direction winds at 2 MPH (2 knots; 1.0 m/s)
Visibility: 6 or more miles (10+ km)
Ceiling: 1600 feet AGL
Clouds: few clouds at 800 feet AGL
broken clouds at 1600 feet AGL
few clouds at 2000 feet AGL
Weather: no significant weather observed at this time

METAR text: FKKD 170900Z VRB03KT 9999 BKN016 FEW020CB 28/24 Q1015 NOSIG
Conditions at: FKKD (DOUALA (CIV/MIL), CM) observed 0900 UTC 17 June 2019
Temperature: 28.0°C (82°F)
Dewpoint: 24.0°C (75°F) [RH = 79%]
Pressure (altimeter): 29.97 inches Hg (1015.0 mb)
Winds: variable direction winds at 3 MPH (3 knots; 1.5 m/s)
Visibility: 6 or more miles (10+ km)
Ceiling: 1600 feet AGL
Clouds: broken clouds at 1600 feet AGL
few clouds at 2000 feet AGL
Weather: no significant weather observed at this time

METAR text: FKKD 170800Z 17004KT 120V240 9999 BKN016 FEW020CB 28/24 Q1015 NOSIG
Conditions at: FKKD (DOUALA (CIV/MIL), CM) observed 0800 UTC 17 June 2019
Temperature: 28.0°C (82°F)
Dewpoint: 24.0°C (75°F) [RH = 79%]
Pressure (altimeter): 29.97 inches Hg (1015.0 mb)
Winds: from the S (170 degrees) at 5 MPH (4 knots; 2.1 m/s)
Visibility: 6 or more miles (10+ km)
Ceiling: 1600 feet AGL
Clouds: broken clouds at 1600 feet AGL
few clouds at 2000 feet AGL
Weather: no significant weather observed at this time

METAR text: FKKD 170700Z 14005KT 090V190 9999 SCT013 FEW016CB 26/24 Q1015 NOSIG
Conditions at: FKKD (DOUALA (CIV/MIL), CM) observed 0700 UTC 17 June 2019
Temperature: 26.0°C (79°F)
Dewpoint: 24.0°C (75°F) [RH = 89%]
Pressure (altimeter): 29.97 inches Hg (1015.0 mb)
Winds: from the SE (140 degrees) at 6 MPH (5 knots; 2.6 m/s)
Visibility: 6 or more miles (10+ km)
Ceiling: at least 12,000 feet AGL
Clouds: scattered clouds at 1300 feet AGL
few clouds at 1600 feet AGL
Weather: no significant weather observed at this time

METAR text: FKKD 170600Z 14003KT 6000 SCT006 BKN012 FEW015CB 25/24 Q1014 NOSIG
Conditions at: FKKD (DOUALA (CIV/MIL), CM) observed 0600 UTC 17 June 2019
Temperature: 25.0°C (77°F)
Dewpoint: 24.0°C (75°F) [RH = 94%]
Pressure (altimeter): 29.94 inches Hg (1014.0 mb)
Winds: from the SE (140 degrees) at 3 MPH (3 knots; 1.5 m/s)
Visibility: 4 miles ( 6 km)
Ceiling: 1200 feet AGL
Clouds: scattered clouds at 600 feet AGL
broken clouds at 1200 feet AGL
few clouds at 1500 feet AGL
Weather: no significant weather observed at this time

METAR text: FKKD 170500Z 10001KT 9999 BKN013 FEW016CB 25/24 Q1014 NOSIG
Conditions at: FKKD (DOUALA (CIV/MIL), CM) observed 0500 UTC 17 June 2019
Temperature: 25.0°C (77°F)
Dewpoint: 24.0°C (75°F) [RH = 94%]
Pressure (altimeter): 29.94 inches Hg (1014.0 mb)
Winds: from the E (100 degrees) at 1 MPH (1 knots; 0.5 m/s)
Visibility: 6 or more miles (10+ km)
Ceiling: 1300 feet AGL
Clouds: broken clouds at 1300 feet AGL
few clouds at 1600 feet AGL
Weather: no significant weather observed at this time

METAR text: FKKD 170400Z 00000KT 9999 BKN013 FEW016CB 25/24 Q1013 NOSIG
Conditions at: FKKD (DOUALA (CIV/MIL), CM) observed 0400 UTC 17 June 2019
Temperature: 25.0°C (77°F)
Dewpoint: 24.0°C (75°F) [RH = 94%]
Pressure (altimeter): 29.91 inches Hg (1013.0 mb)
Winds: calm
Visibility: 6 or more miles (10+ km)
Ceiling: 1300 feet AGL
Clouds: broken clouds at 1300 feet AGL
few clouds at 1600 feet AGL
Weather: no significant weather observed at this time

METAR text: FKKD 170300Z VRB03KT 9999 BKN013 FEW016CB 25/24 Q1013 TEMPO TS
Conditions at: FKKD (DOUALA (CIV/MIL), CM) observed 0300 UTC 17 June 2019
Temperature: 25.0°C (77°F)
Dewpoint: 24.0°C (75°F) [RH = 94%]
Pressure (altimeter): 29.91 inches Hg (1013.0 mb)
Winds: variable direction winds at 3 MPH (3 knots; 1.5 m/s)
Visibility: 6 or more miles (10+ km)
Ceiling: 1300 feet AGL
Clouds: broken clouds at 1300 feet AGL
few clouds at 1600 feet AGL
Weather: no significant weather observed at this time

METAR text: FKKD 170200Z VRB02KT 9999 BKN013 FEW016CB 25/24 Q1013 TEMPO TS
Conditions at: FKKD (DOUALA (CIV/MIL), CM) observed 0200 UTC 17 June 2019
Temperature: 25.0°C (77°F)
Dewpoint: 24.0°C (75°F) [RH = 94%]
Pressure (altimeter): 29.91 inches Hg (1013.0 mb)
Winds: variable direction winds at 2 MPH (2 knots; 1.0 m/s)
Visibility: 6 or more miles (10+ km)
Ceiling: 1300 feet AGL
Clouds: broken clouds at 1300 feet AGL
few clouds at 1600 feet AGL
Weather: no significant weather observed at this time

METAR text: FKKD 170100Z 13002KT 9999 BKN013 FEW016CB 25/24 Q1014 NOSIG
Conditions at: FKKD (DOUALA (CIV/MIL), CM) observed 0100 UTC 17 June 2019
Temperature: 25.0°C (77°F)
Dewpoint: 24.0°C (75°F) [RH = 94%]
Pressure (altimeter): 29.94 inches Hg (1014.0 mb)
Winds: from the SE (130 degrees) at 2 MPH (2 knots; 1.0 m/s)
Visibility: 6 or more miles (10+ km)
Ceiling: 1300 feet AGL
Clouds: broken clouds at 1300 feet AGL
few clouds at 1600 feet AGL
Weather: no significant weather observed at this time

METAR text: FKKD 170000Z 12002KT 9999 SCT016 FEW020CB 25/24 Q1014 NOSIG
Conditions at: FKKD (DOUALA (CIV/MIL), CM) observed 0000 UTC 17 June 2019
Temperature: 25.0°C (77°F)
Dewpoint: 24.0°C (75°F) [RH = 94%]
Pressure (altimeter): 29.94 inches Hg (1014.0 mb)
Winds: from the ESE (120 degrees) at 2 MPH (2 knots; 1.0 m/s)
Visibility: 6 or more miles (10+ km)
Ceiling: at least 12,000 feet AGL
Clouds: scattered clouds at 1600 feet AGL
few clouds at 2000 feet AGL
Weather: no significant weather observed at this time

METAR text: FKKD 162300Z VRB01KT 9999 SCT016 FEW020CB 25/24 Q1014 NOSIG
Conditions at: FKKD (DOUALA (CIV/MIL), CM) observed 2300 UTC 16 June 2019
Temperature: 25.0°C (77°F)
Dewpoint: 24.0°C (75°F) [RH = 94%]
Pressure (altimeter): 29.94 inches Hg (1014.0 mb)
Winds: variable direction winds at 1 MPH (1 knots; 0.5 m/s)
Visibility: 6 or more miles (10+ km)
Ceiling: at least 12,000 feet AGL
Clouds: scattered clouds at 1600 feet AGL
few clouds at 2000 feet AGL
Weather: no significant weather observed at this time

METAR text: FKKD 162200Z 10003KT 9999 SCT016 FEW020CB 25/24 Q1014 NOSIG
Conditions at: FKKD (DOUALA (CIV/MIL), CM) observed 2200 UTC 16 June 2019
Temperature: 25.0°C (77°F)
Dewpoint: 24.0°C (75°F) [RH = 94%]
Pressure (altimeter): 29.94 inches Hg (1014.0 mb)
Winds: from the E (100 degrees) at 3 MPH (3 knots; 1.5 m/s)
Visibility: 6 or more miles (10+ km)
Ceiling: at least 12,000 feet AGL
Clouds: scattered clouds at 1600 feet AGL
few clouds at 2000 feet AGL
Weather: no significant weather observed at this time

METAR text: FKKD 162100Z VRB02KT 9999 BKN016 FEW020CB 25/24 Q1014 NOSIG
Conditions at: FKKD (DOUALA (CIV/MIL), CM) observed 2100 UTC 16 June 2019
Temperature: 25.0°C (77°F)
Dewpoint: 24.0°C (75°F) [RH = 94%]
Pressure (altimeter): 29.94 inches Hg (1014.0 mb)
Winds: variable direction winds at 2 MPH (2 knots; 1.0 m/s)
Visibility: 6 or more miles (10+ km)
Ceiling: 1600 feet AGL
Clouds: broken clouds at 1600 feet AGL
few clouds at 2000 feet AGL
Weather: no significant weather observed at this time

METAR text: FKKD 162000Z 14021KT 9999 BKN016 FEW020CB 26/25 Q1014 NOSIG
Conditions at: FKKD (DOUALA (CIV/MIL), CM) observed 2000 UTC 16 June 2019
Temperature: 26.0°C (79°F)
Dewpoint: 25.0°C (77°F) [RH = 94%]
Pressure (altimeter): 29.94 inches Hg (1014.0 mb)
Winds: from the SE (140 degrees) at 24 MPH (21 knots; 10.8 m/s)
Visibility: 6 or more miles (10+ km)
Ceiling: 1600 feet AGL
Clouds: broken clouds at 1600 feet AGL
few clouds at 2000 feet AGL
Weather: no significant weather observed at this time

METAR text: FKKD 161900Z VRB01KT 9999 BKN016 FEW020CB 26/25 Q1013 NOSIG
Conditions at: FKKD (DOUALA (CIV/MIL), CM) observed 1900 UTC 16 June 2019
Temperature: 26.0°C (79°F)
Dewpoint: 25.0°C (77°F) [RH = 94%]
Pressure (altimeter): 29.91 inches Hg (1013.0 mb)
Winds: variable direction winds at 1 MPH (1 knots; 0.5 m/s)
Visibility: 6 or more miles (10+ km)
Ceiling: 1600 feet AGL
Clouds: broken clouds at 1600 feet AGL
few clouds at 2000 feet AGL
Weather: no significant weather observed at this time

METAR text: FKKD 161800Z VRB02KT 9999 BKN016 FEW020CB 27/25 Q1013 NOSIG
Conditions at: FKKD (DOUALA (CIV/MIL), CM) observed 1800 UTC 16 June 2019
Temperature: 27.0°C (81°F)
Dewpoint: 25.0°C (77°F) [RH = 89%]
Pressure (altimeter): 29.91 inches Hg (1013.0 mb)
Winds: variable direction winds at 2 MPH (2 knots; 1.0 m/s)
Visibility: 6 or more miles (10+ km)
Ceiling: 1600 feet AGL
Clouds: broken clouds at 1600 feet AGL
few clouds at 2000 feet AGL
Weather: no significant weather observed at this time

METAR text: FKKD 161700Z VRB02KT 9999 SCT016 FEW020CB 28/24 Q1013 NOSIG
Conditions at: FKKD (DOUALA (CIV/MIL), CM) observed 1700 UTC 16 June 2019
Temperature: 28.0°C (82°F)
Dewpoint: 24.0°C (75°F) [RH = 79%]
Pressure (altimeter): 29.91 inches Hg (1013.0 mb)
Winds: variable direction winds at 2 MPH (2 knots; 1.0 m/s)
Visibility: 6 or more miles (10+ km)
Ceiling: at least 12,000 feet AGL
Clouds: scattered clouds at 1600 feet AGL
few clouds at 2000 feet AGL
Weather: no significant weather observed at this time

METAR text: FKKD 161600Z VRB02KT 9999 BKN016 FEW020CB 28/26 Q1012 NOSIG
Conditions at: FKKD (DOUALA (CIV/MIL), CM) observed 1600 UTC 16 June 2019
Temperature: 28.0°C (82°F)
Dewpoint: 26.0°C (79°F) [RH = 89%]
Pressure (altimeter): 29.88 inches Hg (1012.0 mb)
Winds: variable direction winds at 2 MPH (2 knots; 1.0 m/s)
Visibility: 6 or more miles (10+ km)
Ceiling: 1600 feet AGL
Clouds: broken clouds at 1600 feet AGL
few clouds at 2000 feet AGL
Weather: no significant weather observed at this time

METAR text: FKKD 161500Z VRB04KT 9999 BKN016 FEW020CB 29/25 Q1012 RETS NOSIG
Conditions at: FKKD (DOUALA (CIV/MIL), CM) observed 1500 UTC 16 June 2019
Temperature: 29.0°C (84°F)
Dewpoint: 25.0°C (77°F) [RH = 79%]
Pressure (altimeter): 29.88 inches Hg (1012.0 mb)
Winds: variable direction winds at 5 MPH (4 knots; 2.1 m/s)
Visibility: 6 or more miles (10+ km)
Ceiling: 1600 feet AGL
Clouds: broken clouds at 1600 feet AGL
few clouds at 2000 feet AGL
Weather: no significant weather observed at this time

Forecast for: FKKD (DOUALA (CIV/MIL), CM)
Text: TAF FKKD 172300Z 1800/1906 VRB03KT 9999 BKN013 FEW016CB
Forecast period: 0000 to 0700 UTC 18 June 2019
Forecast type: FROM: standard forecast or significant change
Winds: variable direction winds at 3 MPH (3 knots; 1.5 m/s)
Visibility: 6 or more miles 10+ km)
Ceiling: 1300 feet AGL
Clouds: broken clouds at 1300 feet AGL
few clouds at 1600 feet AGL
Weather: no significant weather forecast for this period
Text: PROB40 1801/1806 TS
Forecast period: 0100 to 0600 UTC 18 June 2019
Forecast type: PROBABLE: 40 percent likelihood of the following during this time
Visibility: missing
Ceiling: unknown
Clouds: missing
Weather: TS  (thunderstorm)
Text: TEMPO 1805/1807 2000 BR
Forecast period: 0500 to 0700 UTC 18 June 2019
Forecast type: TEMPORARY: The following changes expected for less than half the time period
Visibility: 1.24 miles (2.00 km)
Ceiling: unknown
Clouds: missing
Weather: BR  (mist)
Text: BECMG 1807/1809 BKN016 FEW020CB
Forecast period: 0700 UTC 18 June 2019 to 0600 UTC 19 June 2019
Forecast type: BECOMING: Conditions expected to become as follows by 0900 UTC 18 June 2019
Winds: variable direction winds at 3 MPH (3 knots; 1.5 m/s)
Visibility: 6 or more miles 10+ km)
Ceiling: 1600 feet AGL
Clouds: broken clouds at 1600 feet AGL
few clouds at 2000 feet AGL
Weather: no significant weather forecast for this period
Text: TEMPO 1818/1906 TS BKN013 FEW016CB
Forecast period: 1800 UTC 18 June 2019 to 0600 UTC 19 June 2019
Forecast type: TEMPORARY: The following changes expected for less than half the time period
Visibility: missing
Ceiling: 1300 feet AGL
Clouds: broken clouds at 1300 feet AGL
few clouds at 1600 feet AGL
Weather: TS  (thunderstorm)